Time;durP1;ratioP1;P1;durP2;ratioP2;P2;SDS_P1;SDS_P2;PMS_P1;PMS_P2;Temp;Humidity;BMP_temperature;BMP_pressure;BME280_temperature;BME280_humidity;BME280_pressure;Samples;Min_cycle;Max_cycle;Signal;HPM_P1;HPM_P2
2022/02/15 00:00:48;;;;;;;15.88;3.83;;;;;;;7.10;72.65;100247.28;5094009;28;20495;-68
2022/02/15 00:03:15;;;;;;;14.10;3.58;;;;;;;7.07;73.49;100242.28;5094675;28;20082;-68
2022/02/15 00:05:42;;;;;;;18.67;4.00;;;;;;;7.06;73.42;100243.28;5094067;28;20119;-68
2022/02/15 00:08:08;;;;;;;17.80;4.05;;;;;;;7.10;73.17;100242.00;5092998;28;20036;-68
2022/02/15 00:10:35;;;;;;;14.73;3.75;;;;;;;7.09;74.01;100245.66;5092799;28;20501;-68
2022/02/15 00:13:03;;;;;;;13.82;3.20;;;;;;;7.19;73.64;100250.06;5094301;28;20097;-68
2022/02/15 00:15:30;;;;;;;12.77;3.88;;;;;;;7.21;73.87;100250.75;5087216;28;20403;-68
2022/02/15 00:17:57;;;;;;;17.70;3.10;;;;;;;7.18;73.93;100251.03;5089999;28;20070;-68
2022/02/15 00:20:23;;;;;;;22.02;3.50;;;;;;;7.32;73.27;100249.72;5069897;28;20047;-68
2022/02/15 00:22:50;;;;;;;17.98;3.40;;;;;;;7.25;73.44;100244.19;5087290;28;20036;-68
2022/02/15 00:25:20;;;;;;;18.40;3.30;;;;;;;7.28;73.72;100244.72;5071932;28;20048;-68
2022/02/15 00:27:49;;;;;;;19.33;3.50;;;;;;;7.27;73.75;100250.97;5103168;28;20063;-68
2022/02/15 00:30:17;;;;;;;11.88;3.17;;;;;;;7.19;74.65;100245.59;5077761;28;20075;-68
2022/02/15 00:32:44;;;;;;;20.13;3.70;;;;;;;7.05;74.96;100252.16;5092677;28;20040;-68
2022/02/15 00:35:11;;;;;;;17.25;3.30;;;;;;;7.13;74.70;100254.09;5092575;28;20036;-68
2022/02/15 00:37:41;;;;;;;12.15;3.00;;;;;;;7.22;74.61;100258.50;5092398;28;20521;-68
2022/02/15 00:40:08;;;;;;;21.98;4.28;;;;;;;7.10;74.74;100262.28;5075758;28;20040;-68
2022/02/15 00:42:35;;;;;;;18.83;3.90;;;;;;;7.15;74.63;100265.34;5092379;28;20051;-68
2022/02/15 00:45:04;;;;;;;10.85;3.28;;;;;;;7.04;74.93;100254.94;5092911;28;20040;-68
2022/02/15 00:47:31;;;;;;;14.82;3.60;;;;;;;6.95;76.06;100259.28;5103759;28;20040;-68
2022/02/15 00:49:57;;;;;;;19.58;4.00;;;;;;;7.14;74.69;100270.75;5078098;28;20033;-68
2022/02/15 00:52:26;;;;;;;13.80;4.32;;;;;;;7.08;75.60;100264.25;5092271;28;20048;-68
2022/02/15 00:54:54;;;;;;;15.57;3.80;;;;;;;7.10;75.00;100270.22;5093651;28;20044;-68
2022/02/15 00:57:22;;;;;;;15.48;4.20;;;;;;;7.08;75.11;100272.16;5093298;28;20043;-69
2022/02/15 00:59:50;;;;;;;16.25;3.67;;;;;;;7.36;74.39;100277.47;5108811;28;20048;-68
2022/02/15 01:02:18;;;;;;;17.30;3.70;;;;;;;7.22;74.52;100284.91;5092298;28;20059;-69
2022/02/15 01:04:46;;;;;;;13.27;3.90;;;;;;;7.22;75.25;100281.41;5092260;28;20502;-68
2022/02/15 01:07:13;;;;;;;16.45;3.95;;;;;;;7.15;74.62;100278.53;5092421;28;20048;-69
2022/02/15 01:09:41;;;;;;;18.45;3.78;;;;;;;7.16;75.47;100282.81;5092555;28;20052;-69
2022/02/15 01:12:09;;;;;;;15.25;3.60;;;;;;;7.16;75.01;100288.09;5092579;28;20526;-68
2022/02/15 01:14:37;;;;;;;16.80;3.75;;;;;;;7.25;74.78;100289.88;5093650;28;20476;-68
2022/02/15 01:17:03;;;;;;;13.02;3.50;;;;;;;7.15;75.54;100294.34;5109054;28;20046;-68
2022/02/15 01:19:30;;;;;;;17.33;3.80;;;;;;;7.32;74.93;100295.41;5090592;28;20480;-68
2022/02/15 01:21:57;;;;;;;19.80;3.90;;;;;;;7.44;74.12;100290.78;5094603;28;20040;-68
2022/02/15 01:24:24;;;;;;;15.65;3.67;;;;;;;7.22;75.06;100298.09;5101979;28;20085;-68
2022/02/15 01:26:51;;;;;;;13.88;3.80;;;;;;;7.19;75.38;100289.63;5061937;28;20071;-68
2022/02/15 01:29:18;;;;;;;15.65;3.70;;;;;;;7.37;75.20;100295.81;5091233;28;20093;-68
2022/02/15 01:31:45;;;;;;;18.27;3.88;;;;;;;7.34;74.84;100301.38;5092222;28;20044;-68
2022/02/15 01:34:12;;;;;;;22.52;4.53;;;;;;;7.24;75.64;100296.13;5091933;28;20040;-68
2022/02/15 01:36:39;;;;;;;15.20;3.45;;;;;;;7.26;75.79;100298.63;5091667;28;20044;-69
2022/02/15 01:39:05;;;;;;;19.55;4.18;;;;;;;7.28;75.13;100304.59;5092448;28;20052;-68
2022/02/15 01:41:32;;;;;;;18.58;3.80;;;;;;;7.38;75.52;100301.91;5086261;28;20508;-68
2022/02/15 01:43:59;;;;;;;20.90;4.10;;;;;;;7.42;74.50;100300.66;5093036;28;20044;-68
2022/02/15 01:46:27;;;;;;;13.85;3.67;;;;;;;7.26;75.21;100311.81;5074966;28;20392;-68
2022/02/15 01:48:53;;;;;;;15.77;3.90;;;;;;;7.34;75.57;100311.09;5092305;28;20545;-69
2022/02/15 01:51:26;;;;;;;21.98;3.95;;;;;;;7.28;75.32;100308.06;5093162;28;20036;-68
2022/02/15 01:53:53;;;;;;;20.65;4.03;;;;;;;7.45;74.98;100316.19;5093460;28;20055;-69
2022/02/15 01:56:20;;;;;;;19.33;3.80;;;;;;;7.34;75.26;100311.94;5092759;28;20044;-68
2022/02/15 01:58:48;;;;;;;17.67;3.88;;;;;;;7.34;75.00;100311.94;5093101;28;20051;-68
2022/02/15 02:01:18;;;;;;;15.83;3.70;;;;;;;7.38;74.65;100307.19;5108240;28;20044;-68
2022/02/15 02:04:00;;;;;;;22.05;4.38;;;;;;;7.19;75.47;100308.91;5091428;28;20071;-68
2022/02/15 02:06:28;;;;;;;16.27;3.60;;;;;;;7.40;75.09;100308.69;5090323;28;20048;-68
2022/02/15 02:08:55;;;;;;;18.20;3.85;;;;;;;7.45;74.55;100314.38;5092603;28;20044;-68
2022/02/15 02:11:23;;;;;;;19.55;3.80;;;;;;;7.29;74.63;100311.53;5092473;28;20124;-68
2022/02/15 02:13:58;;;;;;;22.08;4.10;;;;;;;7.21;75.96;100311.41;5090372;28;20048;-69
2022/02/15 02:16:40;;;;;;;17.48;3.88;;;;;;;7.36;74.58;100317.88;5076328;28;20118;-68
2022/02/15 02:19:14;;;;;;;21.52;4.75;;;;;;;7.37;74.88;100314.28;5092094;28;20051;-68
2022/02/15 02:21:41;;;;;;;21.08;4.18;;;;;;;7.15;75.42;100318.09;5075054;28;20040;-68
2022/02/15 02:24:11;;;;;;;20.63;4.15;;;;;;;7.24;75.87;100321.66;5092142;28;20047;-68
2022/02/15 02:26:44;;;;;;;15.07;4.57;;;;;;;7.21;75.78;100324.59;5092932;28;20044;-68
2022/02/15 02:29:10;;;;;;;13.63;4.07;;;;;;;7.09;75.83;100323.91;5091277;28;20044;-68
2022/02/15 02:31:44;;;;;;;15.02;4.45;;;;;;;7.04;76.04;100324.38;5092923;28;20044;-68
2022/02/15 02:34:14;;;;;;;14.23;4.07;;;;;;;7.02;76.04;100321.03;5092594;28;20190;-68
2022/02/15 02:36:45;;;;;;;15.00;4.72;;;;;;;7.03;76.39;100327.13;5092845;28;20131;-68
2022/02/15 02:39:15;;;;;;;17.50;4.78;;;;;;;6.99;76.10;100331.84;5091588;28;20047;-68
2022/02/15 02:41:43;;;;;;;17.30;4.95;;;;;;;7.21;75.12;100335.16;5092637;28;20488;-68
2022/02/15 02:44:10;;;;;;;14.75;4.90;;;;;;;7.03;76.05;100332.41;5074723;28;20048;-68
2022/02/15 02:46:37;;;;;;;19.40;5.03;;;;;;;6.91;76.45;100348.38;5107993;28;20040;-68
2022/02/15 02:49:04;;;;;;;16.75;4.95;;;;;;;6.88;76.75;100343.38;5093382;28;20438;-68
2022/02/15 02:51:33;;;;;;;22.38;4.80;;;;;;;6.83;76.94;100353.50;5096345;28;20048;-68
2022/02/15 02:54:02;;;;;;;16.20;6.30;;;;;;;6.97;75.85;100354.06;5096138;28;20123;-68
2022/02/15 02:56:30;;;;;;;18.25;5.63;;;;;;;6.84;76.82;100351.69;5099838;28;20085;-68
2022/02/15 02:58:57;;;;;;;19.45;5.85;;;;;;;6.79;76.97;100352.13;5101053;28;20507;-69
2022/02/15 03:01:23;;;;;;;18.60;6.32;;;;;;;6.87;76.94;100368.06;5094930;28;20169;-68
2022/02/15 03:03:50;;;;;;;17.08;5.78;;;;;;;6.84;77.45;100363.09;5094839;28;20071;-68
2022/02/15 03:06:21;;;;;;;17.73;6.15;;;;;;;6.76;77.05;100367.41;5094672;28;20048;-68
2022/02/15 03:08:49;;;;;;;17.95;5.60;;;;;;;6.82;77.46;100369.47;5095994;28;20518;-68
2022/02/15 03:11:15;;;;;;;18.75;5.68;;;;;;;6.87;76.75;100377.81;5096099;28;20055;-69
2022/02/15 03:13:45;;;;;;;22.77;6.07;;;;;;;6.65;78.19;100376.28;5095511;28;20576;-68
2022/02/15 03:16:18;;;;;;;17.67;6.55;;;;;;;6.67;77.71;100377.78;5094424;28;20040;-69
2022/02/15 03:18:46;;;;;;;19.85;6.57;;;;;;;6.71;78.39;100380.97;5095724;28;20052;-68
2022/02/15 03:21:13;;;;;;;16.48;6.57;;;;;;;6.86;76.82;100378.78;5082150;28;20048;-68
2022/02/15 03:23:40;;;;;;;18.65;6.40;;;;;;;6.89;76.89;100370.56;5094303;28;20120;-69
2022/02/15 03:26:10;;;;;;;21.52;6.63;;;;;;;6.85;76.84;100385.03;5093667;28;20381;-69
2022/02/15 03:28:39;;;;;;;17.58;6.85;;;;;;;6.87;77.36;100378.63;5094085;28;20527;-69
2022/02/15 03:31:06;;;;;;;16.60;6.75;;;;;;;6.76;77.63;100383.22;5077599;28;20091;-68
2022/02/15 03:33:36;;;;;;;16.33;6.53;;;;;;;6.85;77.35;100390.28;5094453;28;20058;-68
2022/02/15 03:36:04;;;;;;;18.20;6.53;;;;;;;6.66;78.52;100389.31;5077580;28;20036;-68
2022/02/15 03:38:34;;;;;;;18.63;7.07;;;;;;;6.84;77.31;100385.97;5094318;28;20040;-68
2022/02/15 03:43:57;;;;;;;18.48;6.63;;;;;;;6.65;77.99;100400.00;5111094;28;20093;-68
2022/02/15 03:46:29;;;;;;;15.57;6.65;;;;;;;6.61;78.46;100398.59;5077869;28;20515;-68
2022/02/15 03:48:55;;;;;;;17.70;7.38;;;;;;;6.63;78.17;100396.66;5077317;28;20040;-68
2022/02/15 03:51:23;;;;;;;22.17;7.45;;;;;;;6.73;77.81;100400.97;5094409;28;20044;-69
2022/02/15 03:53:54;;;;;;;24.13;7.43;;;;;;;6.62;78.36;100403.75;5077180;28;20046;-69
2022/02/15 03:56:21;;;;;;;17.38;7.28;;;;;;;6.60;78.41;100415.38;5093874;28;20036;-69
2022/02/15 03:58:49;;;;;;;21.42;7.18;;;;;;;6.62;78.32;100411.66;5084032;28;20040;-68
2022/02/15 04:01:17;;;;;;;18.67;7.40;;;;;;;6.51;78.73;100420.50;5094818;28;20399;-68
2022/02/15 04:03:44;;;;;;;18.75;7.25;;;;;;;6.65;78.06;100421.91;5093379;28;20036;-68
2022/02/15 04:06:12;;;;;;;26.17;7.32;;;;;;;6.72;78.06;100427.47;5076784;28;20047;-68
2022/02/15 04:08:40;;;;;;;19.85;7.18;;;;;;;6.59;78.41;100425.09;5093601;28;20123;-68
2022/02/15 04:11:08;;;;;;;17.50;7.18;;;;;;;6.44;79.41;100422.03;5076830;28;20043;-68
2022/02/15 04:13:35;;;;;;;19.05;6.95;;;;;;;6.57;79.05;100429.66;5093171;28;20040;-68
2022/02/15 04:16:03;;;;;;;19.40;7.50;;;;;;;6.42;79.05;100437.13;5076743;28;20044;-69
2022/02/15 04:18:30;;;;;;;22.75;7.57;;;;;;;6.46;79.57;100443.78;5110146;28;20044;-68
2022/02/15 04:20:58;;;;;;;23.50;8.80;;;;;;;6.63;79.52;100441.47;5094579;28;20066;-69
2022/02/15 04:23:25;;;;;;;19.60;8.10;;;;;;;6.54;79.64;100445.75;5094498;28;20047;-68
2022/02/15 04:25:52;;;;;;;18.15;7.78;;;;;;;6.57;79.22;100455.16;5092868;28;20059;-68
2022/02/15 04:28:28;;;;;;;23.10;8.32;;;;;;;6.51;79.46;100452.13;5094073;28;20075;-69
2022/02/15 04:30:58;;;;;;;18.55;7.93;;;;;;;6.60;78.91;100453.09;5094498;28;20423;-69
2022/02/15 04:33:25;;;;;;;19.60;8.10;;;;;;;6.64;79.26;100453.66;5094208;28;20051;-69
2022/02/15 04:35:52;;;;;;;20.88;8.18;;;;;;;6.70;78.87;100458.41;5094003;28;20042;-68
2022/02/15 04:38:20;;;;;;;22.27;8.07;;;;;;;6.53;79.69;100463.38;5094025;28;20381;-68
2022/02/15 04:40:47;;;;;;;22.20;8.75;;;;;;;6.65;79.26;100471.97;5093858;28;20062;-69
2022/02/15 04:43:22;;;;;;;22.33;8.05;;;;;;;6.70;78.80;100468.97;5093846;28;20072;-68
2022/02/15 04:45:49;;;;;;;20.23;8.02;;;;;;;6.68;78.74;100473.53;5109412;28;20044;-69
2022/02/15 04:48:18;;;;;;;25.02;7.63;;;;;;;6.51;79.59;100473.22;5093889;28;20495;-68
2022/02/15 04:50:44;;;;;;;22.13;8.73;;;;;;;6.57;79.59;100479.75;5092988;28;20135;-68
2022/02/15 04:53:11;;;;;;;22.02;7.93;;;;;;;6.60;79.49;100482.09;5075918;28;20044;-68
2022/02/15 04:55:40;;;;;;;24.90;8.52;;;;;;;6.61;79.90;100490.84;5091852;28;20052;-69
2022/02/15 04:58:07;;;;;;;21.27;7.82;;;;;;;6.49;80.13;100498.00;5091754;28;20052;-68
2022/02/15 05:00:39;;;;;;;24.42;8.77;;;;;;;6.45;79.46;100491.34;5093888;28;20126;-68
2022/02/15 05:03:12;;;;;;;18.52;8.48;;;;;;;6.42;80.12;100496.88;5077057;28;20515;-68
2022/02/15 05:05:40;;;;;;;22.65;8.40;;;;;;;6.38;80.28;100500.75;5076136;28;20036;-68
2022/02/15 05:08:06;;;;;;;18.90;7.43;;;;;;;6.30;80.71;100504.06;5101733;28;20050;-68
2022/02/15 05:10:34;;;;;;;17.50;7.93;;;;;;;6.30;81.70;100498.78;5096842;28;20097;-68
2022/02/15 05:13:01;;;;;;;17.75;7.32;;;;;;;6.25;81.11;100501.81;5092016;28;20055;-68
2022/02/15 05:15:38;;;;;;;22.17;8.68;;;;;;;6.33;81.15;100501.13;5092082;28;20105;-68
2022/02/15 05:18:15;;;;;;;18.60;7.97;;;;;;;6.34;80.81;100494.91;5093386;28;20135;-68
2022/02/15 05:20:48;;;;;;;17.25;8.20;;;;;;;6.36;80.58;100500.88;5082464;28;20059;-68
2022/02/15 05:23:16;;;;;;;19.50;8.75;;;;;;;6.25;80.88;100501.81;5059266;28;20036;-68
2022/02/15 05:25:43;;;;;;;22.50;8.73;;;;;;;6.38;80.66;100512.13;5092084;28;20075;-69
2022/02/15 05:28:25;;;;;;;21.08;8.75;;;;;;;6.18;81.52;100508.56;5093990;28;20063;-68
2022/02/15 05:30:53;;;;;;;30.52;9.23;;;;;;;6.12;81.53;100509.94;5093028;28;20519;-68
2022/02/15 05:33:27;;;;;;;24.60;8.32;;;;;;;5.99;82.26;100511.13;5092333;28;20044;-68
2022/02/15 05:35:56;;;;;;;25.35;8.88;;;;;;;6.01;82.51;100511.81;5075479;28;20067;-68
2022/02/15 05:38:23;;;;;;;24.05;8.85;;;;;;;6.10;81.92;100511.84;5093440;28;20551;-68
2022/02/15 05:40:52;;;;;;;24.85;10.00;;;;;;;6.14;81.63;100517.69;5093018;28;20044;-68
2022/02/15 05:43:19;;;;;;;21.65;8.60;;;;;;;6.06;81.72;100526.25;5092694;28;20036;-68
2022/02/15 05:45:50;;;;;;;27.08;9.30;;;;;;;6.14;81.56;100521.16;5092836;28;20089;-68
2022/02/15 05:48:21;;;;;;;23.50;9.63;;;;;;;6.07;81.96;100525.28;5093277;28;20127;-68
2022/02/15 05:50:52;;;;;;;24.52;9.73;;;;;;;6.05;82.68;100527.22;5093200;28;20040;-68
2022/02/15 05:53:27;;;;;;;24.85;10.25;;;;;;;6.04;82.66;100524.69;5076142;28;20089;-68
2022/02/15 05:55:58;;;;;;;25.83;10.63;;;;;;;5.94;82.94;100522.00;5092689;28;20040;-68
2022/02/15 05:58:32;;;;;;;23.42;9.85;;;;;;;5.98;82.49;100519.97;5076101;28;20117;-68
2022/02/15 06:01:01;;;;;;;27.08;9.75;;;;;;;6.06;82.17;100533.34;5074734;28;20040;-68
2022/02/15 06:06:19;;;;;;;22.15;9.27;;;;;;;6.40;80.95;100533.91;5070269;28;20036;-68
2022/02/15 06:08:46;;;;;;;21.58;9.18;;;;;;;6.43;80.34;100536.28;5061478;28;20040;-68
2022/02/15 06:11:13;;;;;;;24.75;9.90;;;;;;;6.32;81.02;100539.84;5090991;28;20392;-68
2022/02/15 06:13:43;;;;;;;26.50;10.00;;;;;;;6.06;81.70;100541.25;5091584;28;20040;-68
2022/02/15 06:16:13;;;;;;;19.33;8.85;;;;;;;6.20;81.43;100532.97;5092708;28;20119;-68
2022/02/15 06:18:56;;;;;;;26.50;9.73;;;;;;;6.20;81.54;100537.41;5092908;28;20048;-68
2022/02/15 06:21:29;;;;;;;20.38;8.82;;;;;;;6.24;81.06;100546.72;5092676;28;20048;-68
2022/02/15 06:23:57;;;;;;;21.40;8.45;;;;;;;6.32;81.08;100555.63;5093525;28;20036;-68
2022/02/15 06:26:29;;;;;;;18.38;8.80;;;;;;;6.49;79.57;100561.25;5096406;28;20043;-68
2022/02/15 06:29:15;;;;;;;20.83;9.38;;;;;;;6.39;80.80;100560.41;5096533;28;20044;-68
2022/02/15 06:31:51;;;;;;;23.02;9.88;;;;;;;6.27;80.76;100564.91;5095262;28;20040;-68
2022/02/15 06:34:21;;;;;;;21.42;9.73;;;;;;;6.03;82.00;100567.81;5095338;28;20044;-68
2022/02/15 06:36:49;;;;;;;22.35;8.70;;;;;;;6.12;81.64;100569.69;5096473;28;20035;-68
2022/02/15 06:39:18;;;;;;;23.35;9.20;;;;;;;6.21;81.15;100579.44;5095173;28;20086;-68
2022/02/15 06:41:49;;;;;;;22.98;9.73;;;;;;;6.13;81.48;100576.59;5094776;28;20052;-68
2022/02/15 06:44:20;;;;;;;21.77;9.38;;;;;;;6.32;80.72;100574.09;5094895;28;20036;-68
2022/02/15 06:46:48;;;;;;;17.08;9.23;;;;;;;6.21;80.96;100579.44;5096049;28;20048;-68
2022/02/15 06:49:20;;;;;;;18.70;8.40;;;;;;;6.30;81.07;100580.47;5095882;28;20093;-68
2022/02/15 06:52:07;;;;;;;22.60;9.68;;;;;;;6.28;80.74;100587.66;5095666;28;20048;-68
2022/02/15 06:54:34;;;;;;;18.05;9.43;;;;;;;6.42;80.42;100603.13;5094492;28;20052;-68
2022/02/15 06:57:04;;;;;;;21.45;8.93;;;;;;;6.47;80.92;100592.19;5095361;28;20102;-68
2022/02/15 06:59:32;;;;;;;21.85;9.10;;;;;;;6.40;80.42;100593.69;5096031;28;20044;-68
2022/02/15 07:01:59;;;;;;;22.55;9.75;;;;;;;6.43;80.64;100602.16;5094837;28;20534;-68
2022/02/15 07:04:29;;;;;;;27.23;10.50;;;;;;;6.40;81.11;100597.13;5094763;28;20044;-68
2022/02/15 07:06:57;;;;;;;24.85;11.07;;;;;;;6.27;81.62;100601.78;5095908;28;20494;-68
2022/02/15 07:09:24;;;;;;;29.80;14.18;;;;;;;6.19;81.95;100605.06;5095564;28;20127;-68
2022/02/15 07:12:11;;;;;;;23.35;11.05;;;;;;;6.26;81.86;100615.94;5094559;28;20044;-68
2022/02/15 07:14:58;;;;;;;24.42;10.80;;;;;;;6.22;82.81;100622.41;5094585;28;20399;-68
2022/02/15 07:17:36;;;;;;;23.40;10.25;;;;;;;6.37;81.87;100625.53;5079159;28;20385;-68
2022/02/15 07:20:08;;;;;;;24.55;11.10;;;;;;;6.52;81.27;100626.91;5095664;28;20122;-68
2022/02/15 07:22:54;;;;;;;26.05;11.43;;;;;;;6.45;81.47;100629.22;5094349;28;20040;-68
2022/02/15 07:25:41;;;;;;;31.17;12.20;;;;;;;6.50;81.72;100629.66;5098550;28;20040;-68
2022/02/15 07:28:19;;;;;;;23.65;11.25;;;;;;;6.50;81.41;100637.56;5096334;28;20043;-68
2022/02/15 07:30:48;;;;;;;24.55;11.48;;;;;;;6.58;81.11;100650.09;5094179;28;20151;-67
2022/02/15 07:33:19;;;;;;;31.30;11.80;;;;;;;6.60;81.99;100649.97;5092430;28;20036;-67
2022/02/15 07:35:46;;;;;;;26.67;12.18;;;;;;;6.46;81.72;100649.34;5090887;28;20032;-68
2022/02/15 07:38:13;;;;;;;25.75;11.82;;;;;;;6.58;81.38;100644.81;5091287;28;20047;-68
2022/02/15 07:40:40;;;;;;;30.23;12.75;;;;;;;6.37;82.03;100657.16;5094689;28;20136;-68
2022/02/15 07:43:08;;;;;;;22.65;12.05;;;;;;;6.57;82.07;100652.84;5093920;28;20036;-68
2022/02/15 07:45:41;;;;;;;28.30;12.15;;;;;;;6.63;81.77;100652.34;5093952;28;20043;-68
2022/02/15 07:48:08;;;;;;;27.02;12.43;;;;;;;6.72;81.25;100657.66;5101552;28;20048;-68
2022/02/15 07:50:35;;;;;;;29.27;13.10;;;;;;;6.61;81.59;100649.00;5093858;28;20067;-68
2022/02/15 07:53:03;;;;;;;31.05;13.35;;;;;;;6.58;81.33;100663.25;5093931;28;20036;-68
2022/02/15 07:55:30;;;;;;;27.15;13.65;;;;;;;6.71;81.18;100661.28;5093568;28;20085;-68
2022/02/15 07:57:56;;;;;;;33.72;13.73;;;;;;;6.67;81.09;100666.94;5093332;28;20036;-68
2022/02/15 08:00:23;;;;;;;28.27;13.70;;;;;;;6.69;81.12;100667.63;5076856;28;20373;-68
2022/02/15 08:02:52;;;;;;;31.17;13.27;;;;;;;6.87;80.83;100676.59;5093620;28;20040;-68
2022/02/15 08:05:20;;;;;;;35.90;14.15;;;;;;;6.86;80.12;100679.38;5089443;28;20044;-68
2022/02/15 08:07:51;;;;;;;33.80;13.90;;;;;;;6.79;81.02;100689.63;5081743;28;20400;-68
2022/02/15 08:10:19;;;;;;;26.63;13.77;;;;;;;6.83;80.41;100682.28;5073466;28;20385;-68
2022/02/15 08:12:47;;;;;;;28.90;13.98;;;;;;;6.68;81.21;100687.88;5073000;28;20044;-68
2022/02/15 08:15:15;;;;;;;27.17;13.40;;;;;;;6.83;80.69;100691.03;5084006;28;20045;-68
2022/02/15 08:17:41;;;;;;;35.97;15.57;;;;;;;6.71;80.92;100694.69;5085159;28;20032;-69
2022/02/15 08:20:09;;;;;;;39.50;15.40;;;;;;;6.65;81.31;100698.69;5075802;28;20081;-68
2022/02/15 08:22:36;;;;;;;28.85;15.07;;;;;;;6.84;80.76;100690.06;5078407;28;20082;-68
2022/02/15 08:25:03;;;;;;;32.30;14.52;;;;;;;6.81;80.39;100700.88;5078377;28;20110;-68
2022/02/15 08:27:30;;;;;;;33.60;16.38;;;;;;;6.64;81.09;100704.09;5091277;28;20046;-68
2022/02/15 08:29:57;;;;;;;36.30;16.00;;;;;;;6.78;81.06;100706.38;5092294;28;20058;-68
2022/02/15 08:32:24;;;;;;;31.02;15.75;;;;;;;6.73;80.97;100704.16;5083250;28;20442;-68
2022/02/15 08:34:52;;;;;;;33.38;14.38;;;;;;;6.57;81.71;100701.16;5099616;28;20048;-68
2022/02/15 08:37:21;;;;;;;35.92;17.10;;;;;;;6.64;81.03;100702.31;5105882;28;20043;-68
2022/02/15 08:39:48;;;;;;;33.95;15.43;;;;;;;6.53;81.35;100712.88;5093728;28;20121;-68
2022/02/15 08:42:14;;;;;;;32.58;15.15;;;;;;;6.61;81.31;100713.09;5093298;28;20376;-68
2022/02/15 08:44:43;;;;;;;32.28;15.38;;;;;;;6.76;79.93;100721.50;5075650;28;20040;-68
2022/02/15 08:47:10;;;;;;;32.58;15.15;;;;;;;6.74;80.53;100718.16;5092500;28;20057;-68
2022/02/15 08:49:37;;;;;;;44.15;17.17;;;;;;;7.00;79.80;100723.84;5092265;28;20044;-68
2022/02/15 08:52:05;;;;;;;33.53;16.25;;;;;;;6.99;79.53;100722.19;5099643;28;20466;-68
2022/02/15 08:54:32;;;;;;;34.42;15.05;;;;;;;6.96;79.30;100713.72;5102796;28;20040;-68
2022/02/15 08:56:58;;;;;;;33.60;15.68;;;;;;;7.03;79.03;100714.84;5093221;28;20040;-68
2022/02/15 08:59:25;;;;;;;37.03;14.23;;;;;;;7.07;78.58;100729.44;5086152;28;20048;-68
2022/02/15 09:01:53;;;;;;;32.22;14.82;;;;;;;7.17;78.21;100730.34;5083808;28;20148;-68
2022/02/15 09:04:19;;;;;;;33.78;13.73;;;;;;;7.19;77.94;100731.03;5083899;28;20060;-69
2022/02/15 09:06:46;;;;;;;32.88;14.82;;;;;;;7.22;76.97;100727.28;5093376;28;20040;-68
2022/02/15 09:09:13;;;;;;;26.67;13.55;;;;;;;7.16;77.51;100738.38;5089333;28;20111;-68
2022/02/15 09:11:41;;;;;;;29.75;11.93;;;;;;;7.11;76.63;100736.13;5090615;28;20053;-68
2022/02/15 09:14:08;;;;;;;25.33;11.13;;;;;;;7.18;75.40;100744.34;5087005;28;20633;-68
2022/02/15 09:16:35;;;;;;;21.40;11.55;;;;;;;7.10;75.87;100737.09;5094631;28;20043;-68
2022/02/15 09:19:02;;;;;;;24.70;11.35;;;;;;;7.06;75.95;100743.63;5085231;28;20036;-68
2022/02/15 09:21:29;;;;;;;21.02;11.27;;;;;;;6.85;76.82;100746.28;5090522;28;20040;-68
2022/02/15 09:23:55;;;;;;;24.42;10.20;;;;;;;6.88;76.64;100757.41;5090744;28;20408;-68
2022/02/15 09:26:22;;;;;;;23.52;10.50;;;;;;;6.86;76.46;100748.78;5093014;28;20097;-68
2022/02/15 09:28:49;;;;;;;24.65;11.23;;;;;;;6.85;76.15;100755.00;5069925;28;20052;-68
2022/02/15 09:31:16;;;;;;;24.52;10.60;;;;;;;6.77;77.44;100757.47;5089956;28;20044;-69
2022/02/15 09:33:42;;;;;;;31.67;11.05;;;;;;;6.82;76.68;100755.28;5072947;28;20530;-68
2022/02/15 09:36:20;;;;;;;22.90;10.80;;;;;;;6.88;77.12;100767.13;5105257;28;20059;-68
2022/02/15 09:38:47;;;;;;;19.00;10.48;;;;;;;6.70;76.77;100770.31;5092202;28;20089;-68
2022/02/15 09:41:15;;;;;;;23.83;11.63;;;;;;;6.75;77.51;100764.69;5075139;28;20047;-69
2022/02/15 09:43:42;;;;;;;23.88;11.07;;;;;;;6.90;76.53;100768.66;5072793;28;20041;-68
2022/02/15 09:46:13;;;;;;;26.42;11.57;;;;;;;6.79;76.54;100776.63;5092306;28;20051;-68
2022/02/15 09:48:43;;;;;;;27.67;11.23;;;;;;;6.73;77.19;100774.50;5093727;28;20044;-68
2022/02/15 09:51:13;;;;;;;21.48;10.45;;;;;;;7.01;77.01;100772.19;5093628;28;20040;-68
2022/02/15 09:53:39;;;;;;;24.05;10.63;;;;;;;6.84;76.36;100770.94;5074212;28;20060;-68
2022/02/15 09:56:07;;;;;;;24.33;10.98;;;;;;;6.84;77.13;100773.59;5086715;28;20115;-68
2022/02/15 09:58:34;;;;;;;23.95;11.52;;;;;;;7.13;75.58;100775.56;5061963;28;20039;-68
2022/02/15 10:01:03;;;;;;;25.50;11.93;;;;;;;7.10;75.69;100771.41;5067155;28;20563;-68
2022/02/15 10:03:32;;;;;;;28.05;11.57;;;;;;;6.95;75.80;100765.63;5078425;28;20058;-68
2022/02/15 10:06:02;;;;;;;27.55;11.85;;;;;;;6.93;76.45;100770.22;5087169;28;20048;-68
2022/02/15 10:08:31;;;;;;;27.00;11.05;;;;;;;6.82;76.50;100779.03;5095816;28;20058;-68
2022/02/15 10:11:13;;;;;;;25.00;12.45;;;;;;;6.96;75.97;100779.66;5098187;28;20043;-68
2022/02/15 10:13:43;;;;;;;33.83;12.18;;;;;;;7.01;76.17;100777.47;5094714;28;20047;-68
2022/02/15 10:16:11;;;;;;;22.63;12.10;;;;;;;6.99;76.14;100795.22;5095420;28;20050;-68
2022/02/15 10:18:38;;;;;;;32.85;12.23;;;;;;;7.18;75.79;100789.22;5091108;28;20400;-68
2022/02/15 10:21:05;;;;;;;26.70;11.27;;;;;;;7.28;75.38;100792.75;5101006;28;20104;-68
2022/02/15 10:23:34;;;;;;;30.60;12.35;;;;;;;7.45;74.09;100800.03;5095005;28;20044;-68
2022/02/15 10:26:03;;;;;;;26.25;11.93;;;;;;;7.44;74.01;100802.78;5094684;28;20051;-68
2022/02/15 10:28:33;;;;;;;27.60;12.32;;;;;;;7.66;73.66;100801.81;5061660;28;20036;-68
2022/02/15 10:31:02;;;;;;;25.52;12.57;;;;;;;7.58;72.25;100805.09;5095121;28;20051;-68
2022/02/15 10:36:08;;;;;;;23.40;11.45;;;;;;;7.59;72.60;100811.22;5128325;27;20147;-68
2022/02/15 10:38:39;;;;;;;25.58;11.35;;;;;;;7.79;71.67;100805.03;5101493;27;20518;-68
2022/02/15 10:41:16;;;;;;;23.92;10.73;;;;;;;7.92;70.92;100810.06;5142171;27;20441;-68
2022/02/15 10:43:47;;;;;;;26.02;10.13;;;;;;;7.99;70.23;100813.84;5132810;27;20517;-68
2022/02/15 10:46:18;;;;;;;24.33;11.88;;;;;;;8.28;69.93;100810.44;5131049;27;20062;-68
2022/02/15 10:48:46;;;;;;;24.83;10.25;;;;;;;8.01;69.68;100805.78;5122755;27;20167;-68
2022/02/15 10:51:14;;;;;;;26.50;10.02;;;;;;;7.93;70.32;100806.47;5135173;27;20556;-68
2022/02/15 10:53:53;;;;;;;22.65;10.18;;;;;;;7.83;70.08;100801.16;5126383;27;20032;-68
2022/02/15 10:56:29;;;;;;;26.13;9.43;;;;;;;7.69;69.95;100828.78;5123907;27;20044;-68
2022/02/15 10:58:59;;;;;;;17.23;8.95;;;;;;;7.47;69.39;100827.13;5126677;27;20085;-68
2022/02/15 11:01:27;;;;;;;16.58;7.90;;;;;;;7.46;69.06;100829.94;5109850;28;20032;-68
2022/02/15 11:03:54;;;;;;;17.92;8.40;;;;;;;7.48;69.22;100830.63;5095878;27;20054;-68
2022/02/15 11:06:21;;;;;;;23.10;8.73;;;;;;;7.69;69.11;100827.91;5116224;27;20035;-68
2022/02/15 11:08:52;;;;;;;19.48;7.25;;;;;;;7.62;68.46;100827.63;5113789;27;20515;-68
2022/02/15 11:11:23;;;;;;;22.45;7.63;;;;;;;7.52;68.96;100826.75;5127536;27;20031;-68
2022/02/15 11:13:55;;;;;;;20.60;7.78;;;;;;;7.37;69.50;100828.91;5127431;27;20037;-68
2022/02/15 11:16:22;;;;;;;;;;;;;;;7.44;69.29;100816.84;5096104;27;20051;-67
2022/02/15 11:18:49;;;;;;;16.63;7.43;;;;;;;7.56;69.62;100809.66;5125586;27;19953;-68
2022/02/15 11:21:24;;;;;;;24.35;7.55;;;;;;;7.60;68.15;100808.44;5099890;27;20131;-67
2022/02/15 11:24:00;;;;;;;18.13;6.28;;;;;;;10.36;59.26;100807.75;5128340;27;20035;-68
2022/02/15 11:29:21;;;;;;;20.10;5.97;;;;;;;8.94;62.78;100803.63;5070785;27;20410;-69
2022/02/15 11:31:49;;;;;;;14.93;5.45;;;;;;;8.68;63.24;100796.28;5066839;28;20037;-68
2022/02/15 11:34:16;;;;;;;12.73;5.45;;;;;;;8.73;63.45;100803.78;5069096;28;20037;-68
2022/02/15 11:36:51;;;;;;;22.20;5.53;;;;;;;8.53;63.42;100803.81;5068057;28;20049;-68
2022/02/15 11:39:22;;;;;;;16.98;5.75;;;;;;;11.13;55.62;100808.06;5050261;28;20146;-68
2022/02/15 11:41:51;;;;;;;13.85;5.00;;;;;;;11.09;53.85;100798.72;5067551;28;20041;-68